Terminal Aerodrome Forecast
Issued by NWS

Home | Current Version | Previous Version | Graphics & Text | Print | Product List | Glossary On
Versions: 1 2 3 4 5 6 7 8 9 10 11 12 13 14 15 16 17 18 19 20 21 22
143
FTUS43 KTOP 291734
TAFMHK
TAF
KMHK 291734Z 2918/3018 05010G19KT P6SM OVC015
      TEMPO 2918/2920 6SM -RA
     FM292000 07014G19KT P6SM -RA VCTS OVC015CB
     FM300100 10011KT 5SM -RA VCTS SCT008 OVC012CB
     FM301300 20008KT P6SM SCT008 BKN015=

USA.gov is the U.S. government's official web portal to all federal, state and local government web resources and services.